sensor_id;sensor_type;location;lat;lon;timestamp;pressure;altitude;pressure_sealevel;temperature;humidity
78562;BME280;68963;52.138;5.446;2023-05-10T00:01:20;100993.94;;;12.70;100.00
78562;BME280;68963;52.138;5.446;2023-05-10T00:03:46;100994.97;;;12.69;100.00
78562;BME280;68963;52.138;5.446;2023-05-10T00:06:13;100994.38;;;12.67;100.00
78562;BME280;68963;52.138;5.446;2023-05-10T00:08:40;100992.72;;;12.66;100.00
78562;BME280;68963;52.138;5.446;2023-05-10T00:11:07;100994.16;;;12.68;100.00
78562;BME280;68963;52.138;5.446;2023-05-10T00:13:33;100994.16;;;12.68;100.00
78562;BME280;68963;52.138;5.446;2023-05-10T00:16:00;100990.28;;;12.64;100.00
78562;BME280;68963;52.138;5.446;2023-05-10T00:18:26;100986.63;;;12.65;100.00
78562;BME280;68963;52.138;5.446;2023-05-10T00:20:53;100993.75;;;12.65;100.00
78562;BME280;68963;52.138;5.446;2023-05-10T00:23:19;100986.03;;;12.63;100.00
78562;BME280;68963;52.138;5.446;2023-05-10T00:25:46;100985.00;;;12.64;100.00
78562;BME280;68963;52.138;5.446;2023-05-10T00:28:12;100986.63;;;12.65;100.00
78562;BME280;68963;52.138;5.446;2023-05-10T00:30:39;100983.97;;;12.65;100.00
78562;BME280;68963;52.138;5.446;2023-05-10T00:33:05;100979.91;;;12.63;100.00
78562;BME280;68963;52.138;5.446;2023-05-10T00:35:32;100985.22;;;12.69;100.00
78562;BME280;68963;52.138;5.446;2023-05-10T00:37:59;100987.69;;;12.71;100.00
78562;BME280;68963;52.138;5.446;2023-05-10T00:40:25;100984.81;;;12.72;100.00
78562;BME280;68963;52.138;5.446;2023-05-10T00:42:52;100987.25;;;12.74;100.00
78562;BME280;68963;52.138;5.446;2023-05-10T00:45:18;100981.56;;;12.77;100.00
78562;BME280;68963;52.138;5.446;2023-05-10T00:47:45;100990.31;;;12.77;100.00
78562;BME280;68963;52.138;5.446;2023-05-10T00:50:12;100991.75;;;12.80;100.00
78562;BME280;68963;52.138;5.446;2023-05-10T00:52:39;100987.50;;;12.79;100.00
78562;BME280;68963;52.138;5.446;2023-05-10T00:55:07;100982.22;;;12.79;100.00
78562;BME280;68963;52.138;5.446;2023-05-10T00:57:33;100990.13;;;12.79;100.00
78562;BME280;68963;52.138;5.446;2023-05-10T01:00:01;100985.25;;;12.76;100.00
78562;BME280;68963;52.138;5.446;2023-05-10T01:02:27;100989.50;;;12.77;100.00
78562;BME280;68963;52.138;5.446;2023-05-10T01:04:54;100988.50;;;12.78;100.00
78562;BME280;68963;52.138;5.446;2023-05-10T01:07:21;100990.31;;;12.77;100.00
78562;BME280;68963;52.138;5.446;2023-05-10T01:09:47;100991.97;;;12.78;100.00
78562;BME280;68963;52.138;5.446;2023-05-10T01:12:14;100987.50;;;12.79;100.00
78562;BME280;68963;52.138;5.446;2023-05-10T01:14:41;100996.25;;;12.79;100.00
78562;BME280;68963;52.138;5.446;2023-05-10T01:17:09;100992.56;;;12.80;100.00
78562;BME280;68963;52.138;5.446;2023-05-10T01:19:37;100994.22;;;12.81;100.00
78562;BME280;68963;52.138;5.446;2023-05-10T01:38:49;100988.50;;;12.78;100.00
78562;BME280;68963;52.138;5.446;2023-05-10T01:41:40;100985.25;;;12.76;100.00
78562;BME280;68963;52.138;5.446;2023-05-10T01:44:18;100998.47;;;12.76;100.00
78562;BME280;68963;52.138;5.446;2023-05-10T01:46:52;100989.91;;;12.74;100.00
78562;BME280;68963;52.138;5.446;2023-05-10T01:49:24;100990.75;;;12.74;100.00
78562;BME280;68963;52.138;5.446;2023-05-10T01:51:54;101000.28;;;12.75;100.00
78562;BME280;68963;52.138;5.446;2023-05-10T01:54:25;100992.16;;;12.77;100.00
78562;BME280;68963;52.138;5.446;2023-05-10T01:57:04;100987.88;;;12.76;100.00
78562;BME280;68963;52.138;5.446;2023-05-10T01:59:34;100998.25;;;12.77;100.00
78562;BME280;68963;52.138;5.446;2023-05-10T02:02:08;100991.34;;;12.76;100.00
78562;BME280;68963;52.138;5.446;2023-05-10T02:04:39;100995.81;;;12.76;100.00
78562;BME280;68963;52.138;5.446;2023-05-10T02:07:08;100993.56;;;12.73;100.00
78562;BME280;68963;52.138;5.446;2023-05-10T02:09:36;100996.41;;;12.71;100.00
78562;BME280;68963;52.138;5.446;2023-05-10T02:12:04;100994.59;;;12.72;100.00
78562;BME280;68963;52.138;5.446;2023-05-10T02:14:35;101006.78;;;12.73;100.00
78562;BME280;68963;52.138;5.446;2023-05-10T02:17:04;100995.41;;;12.72;100.00
78562;BME280;68963;52.138;5.446;2023-05-10T02:19:32;100996.19;;;12.73;100.00
78562;BME280;68963;52.138;5.446;2023-05-10T02:22:00;100990.91;;;12.73;100.00
78562;BME280;68963;52.138;5.446;2023-05-10T02:24:28;100999.88;;;12.72;100.00
78562;BME280;68963;52.138;5.446;2023-05-10T02:26:56;101000.06;;;12.70;100.00
78562;BME280;68963;52.138;5.446;2023-05-10T02:29:25;101008.00;;;12.70;100.00
78562;BME280;68963;52.138;5.446;2023-05-10T02:31:54;101007.00;;;12.71;100.00
78562;BME280;68963;52.138;5.446;2023-05-10T02:34:22;101014.09;;;12.71;100.00
78562;BME280;68963;52.138;5.446;2023-05-10T02:36:50;101012.44;;;12.70;100.00
78562;BME280;68963;52.138;5.446;2023-05-10T02:39:19;101008.19;;;12.69;100.00
78562;BME280;68963;52.138;5.446;2023-05-10T02:41:48;101016.94;;;12.69;100.00
78562;BME280;68963;52.138;5.446;2023-05-10T02:44:18;101022.22;;;12.69;100.00
78562;BME280;68963;52.138;5.446;2023-05-10T02:46:46;101023.66;;;12.72;100.00
78562;BME280;68963;52.138;5.446;2023-05-10T02:49:13;101029.34;;;12.69;100.00
78562;BME280;68963;52.138;5.446;2023-05-10T02:51:47;101022.22;;;12.69;100.00
78562;BME280;68963;52.138;5.446;2023-05-10T02:54:26;101019.78;;;12.68;100.00
78562;BME280;68963;52.138;5.446;2023-05-10T02:56:56;101020.81;;;12.67;100.00
78562;BME280;68963;52.138;5.446;2023-05-10T02:59:23;101022.81;;;12.65;100.00
78562;BME280;68963;52.138;5.446;2023-05-10T03:01:50;101023.03;;;12.63;100.00
78562;BME280;68963;52.138;5.446;2023-05-10T03:04:16;101018.72;;;12.62;100.00
78562;BME280;68963;52.138;5.446;2023-05-10T03:06:44;101025.66;;;12.63;100.00
78562;BME280;68963;52.138;5.446;2023-05-10T03:09:11;101029.50;;;12.61;100.00
78562;BME280;68963;52.138;5.446;2023-05-10T03:17:45;101019.88;;;12.46;100.00
78562;BME280;68963;52.138;5.446;2023-05-10T03:20:03;101031.25;;;12.47;100.00
78562;BME280;68963;52.138;5.446;2023-05-10T03:22:34;101026.34;;;12.44;100.00
78562;BME280;68963;52.138;5.446;2023-05-10T03:25:06;101033.84;;;12.40;100.00
78562;BME280;68963;52.138;5.446;2023-05-10T03:27:35;101039.56;;;12.37;100.00
78562;BME280;68963;52.138;5.446;2023-05-10T03:30:02;101040.16;;;12.39;100.00
78562;BME280;68963;52.138;5.446;2023-05-10T03:32:30;101044.63;;;12.39;100.00
78562;BME280;68963;52.138;5.446;2023-05-10T03:34:58;101046.25;;;12.40;100.00
78562;BME280;68963;52.138;5.446;2023-05-10T03:37:25;101044.63;;;12.39;100.00
78562;BME280;68963;52.138;5.446;2023-05-10T03:39:51;101035.25;;;12.36;100.00
78562;BME280;68963;52.138;5.446;2023-05-10T03:42:18;101045.00;;;12.36;100.00
78562;BME280;68963;52.138;5.446;2023-05-10T03:44:44;101040.53;;;12.36;100.00
78562;BME280;68963;52.138;5.446;2023-05-10T03:47:11;101035.66;;;12.33;100.00
78562;BME280;68963;52.138;5.446;2023-05-10T03:49:37;101033.41;;;12.30;100.00
78562;BME280;68963;52.138;5.446;2023-05-10T03:52:04;101030.94;;;12.28;100.00
78562;BME280;68963;52.138;5.446;2023-05-10T03:54:31;101037.03;;;12.29;100.00
78562;BME280;68963;52.138;5.446;2023-05-10T03:56:58;101035.41;;;12.28;100.00
78562;BME280;68963;52.138;5.446;2023-05-10T03:59:25;101040.69;;;12.28;100.00
78562;BME280;68963;52.138;5.446;2023-05-10T04:01:51;101038.69;;;12.30;100.00
78562;BME280;68963;52.138;5.446;2023-05-10T04:04:18;101040.94;;;12.33;100.00
78562;BME280;68963;52.138;5.446;2023-05-10T04:06:47;101041.13;;;12.31;100.00
78562;BME280;68963;52.138;5.446;2023-05-10T04:09:13;101042.97;;;12.31;100.00
78562;BME280;68963;52.138;5.446;2023-05-10T04:11:40;101043.78;;;12.31;100.00
78562;BME280;68963;52.138;5.446;2023-05-10T04:14:06;101049.88;;;12.32;100.00
78562;BME280;68963;52.138;5.446;2023-05-10T04:16:33;101047.22;;;12.32;100.00
78562;BME280;68963;52.138;5.446;2023-05-10T04:19:00;101050.88;;;12.31;100.00
78562;BME280;68963;52.138;5.446;2023-05-10T04:21:26;101044.59;;;12.32;100.00
78562;BME280;68963;52.138;5.446;2023-05-10T04:23:53;101048.84;;;12.33;100.00
78562;BME280;68963;52.138;5.446;2023-05-10T04:26:19;101045.00;;;12.36;100.00
78562;BME280;68963;52.138;5.446;2023-05-10T04:28:46;101043.19;;;12.36;100.00
78562;BME280;68963;52.138;5.446;2023-05-10T04:31:13;101045.00;;;12.36;100.00
78562;BME280;68963;52.138;5.446;2023-05-10T04:33:40;101046.03;;;12.35;100.00
78562;BME280;68963;52.138;5.446;2023-05-10T04:36:06;101044.84;;;12.37;100.00
78562;BME280;68963;52.138;5.446;2023-05-10T04:38:33;101053.56;;;12.38;100.00
78562;BME280;68963;52.138;5.446;2023-05-10T04:41:10;101054.78;;;12.35;100.00
78562;BME280;68963;52.138;5.446;2023-05-10T04:43:37;101052.34;;;12.33;100.00
78562;BME280;68963;52.138;5.446;2023-05-10T04:46:06;101048.69;;;12.35;100.00
78562;BME280;68963;52.138;5.446;2023-05-10T04:48:33;101056.22;;;12.38;100.00
78562;BME280;68963;52.138;5.446;2023-05-10T04:51:00;101062.69;;;12.35;100.00
78562;BME280;68963;52.138;5.446;2023-05-10T04:53:27;101067.78;;;12.37;100.00
78562;BME280;68963;52.138;5.446;2023-05-10T04:55:53;101065.75;;;12.39;100.00
78562;BME280;68963;52.138;5.446;2023-05-10T04:58:20;101065.38;;;12.42;100.00
78562;BME280;68963;52.138;5.446;2023-05-10T05:00:46;101069.44;;;12.44;100.00
78562;BME280;68963;52.138;5.446;2023-05-10T05:03:13;101068.03;;;12.42;100.00
78562;BME280;68963;52.138;5.446;2023-05-10T05:05:39;101068.84;;;12.42;100.00
78562;BME280;68963;52.138;5.446;2023-05-10T05:08:06;101078.81;;;12.47;100.00
78562;BME280;68963;52.138;5.446;2023-05-10T05:10:32;101076.00;;;12.48;100.00
78562;BME280;68963;52.138;5.446;2023-05-10T05:12:59;101080.25;;;12.49;100.00
78562;BME280;68963;52.138;5.446;2023-05-10T05:15:26;101088.78;;;12.51;100.00
78562;BME280;68963;52.138;5.446;2023-05-10T05:17:52;101080.06;;;12.51;100.00
78562;BME280;68963;52.138;5.446;2023-05-10T05:20:19;101081.06;;;12.50;100.00
78562;BME280;68963;52.138;5.446;2023-05-10T05:22:46;101082.91;;;12.49;100.00
78562;BME280;68963;52.138;5.446;2023-05-10T05:25:12;101087.97;;;12.51;100.00
78562;BME280;68963;52.138;5.446;2023-05-10T05:27:39;101085.97;;;12.53;100.00
78562;BME280;68963;52.138;5.446;2023-05-10T05:30:06;101094.72;;;12.53;100.00
78562;BME280;68963;52.138;5.446;2023-05-10T05:32:33;101091.25;;;12.53;100.00
78562;BME280;68963;52.138;5.446;2023-05-10T05:34:59;101105.88;;;12.55;100.00
78562;BME280;68963;52.138;5.446;2023-05-10T05:37:27;101097.78;;;12.57;100.00
78562;BME280;68963;52.138;5.446;2023-05-10T05:39:54;101094.94;;;12.58;100.00
78562;BME280;68963;52.138;5.446;2023-05-10T05:42:21;101101.03;;;12.59;100.00
78562;BME280;68963;52.138;5.446;2023-05-10T05:44:47;101104.69;;;12.58;100.00
78562;BME280;68963;52.138;5.446;2023-05-10T05:47:14;101099.78;;;12.55;100.00
78562;BME280;68963;52.138;5.446;2023-05-10T05:49:41;101105.88;;;12.55;100.00
78562;BME280;68963;52.138;5.446;2023-05-10T05:52:07;101099.63;;;12.56;100.00
78562;BME280;68963;52.138;5.446;2023-05-10T05:54:34;101107.34;;;12.58;100.00
78562;BME280;68963;52.138;5.446;2023-05-10T05:57:00;101107.53;;;12.56;100.00
78562;BME280;68963;52.138;5.446;2023-05-10T05:59:27;101112.41;;;12.53;100.00
78562;BME280;68963;52.138;5.446;2023-05-10T06:01:54;101107.50;;;12.50;100.00
78562;BME280;68963;52.138;5.446;2023-05-10T06:04:21;101123.13;;;12.51;100.00
78562;BME280;68963;52.138;5.446;2023-05-10T06:06:48;101121.34;;;12.52;100.00
78562;BME280;68963;52.138;5.446;2023-05-10T06:09:14;101126.00;;;12.50;100.00
78562;BME280;68963;52.138;5.446;2023-05-10T06:11:41;101127.81;;;12.49;100.00
78562;BME280;68963;52.138;5.446;2023-05-10T06:14:07;101128.84;;;12.48;100.00
78562;BME280;68963;52.138;5.446;2023-05-10T06:16:34;101135.75;;;12.49;100.00
78562;BME280;68963;52.138;5.446;2023-05-10T06:19:02;101133.53;;;12.53;100.00
78562;BME280;68963;52.138;5.446;2023-05-10T06:21:28;101135.78;;;12.56;100.00
78562;BME280;68963;52.138;5.446;2023-05-10T06:23:56;101133.75;;;12.58;100.00
78562;BME280;68963;52.138;5.446;2023-05-10T06:26:23;101140.06;;;12.57;100.00
78562;BME280;68963;52.138;5.446;2023-05-10T06:28:49;101142.72;;;12.57;100.00
78562;BME280;68963;52.138;5.446;2023-05-10T06:31:16;101135.16;;;12.54;100.00
78562;BME280;68963;52.138;5.446;2023-05-10T06:33:42;101138.81;;;12.53;100.00
78562;BME280;68963;52.138;5.446;2023-05-10T06:36:09;101140.06;;;12.57;100.00
78562;BME280;68963;52.138;5.446;2023-05-10T06:38:36;101135.38;;;12.59;100.00
78562;BME280;68963;52.138;5.446;2023-05-10T06:41:02;101146.16;;;12.57;100.00
78562;BME280;68963;52.138;5.446;2023-05-10T06:43:29;101139.44;;;12.55;100.00
78562;BME280;68963;52.138;5.446;2023-05-10T06:45:55;101152.22;;;12.51;100.00
78562;BME280;68963;52.138;5.446;2023-05-10T06:48:22;101155.09;;;12.56;100.00
78562;BME280;68963;52.138;5.446;2023-05-10T06:50:49;101155.53;;;12.60;100.00
78562;BME280;68963;52.138;5.446;2023-05-10T06:53:15;101160.63;;;12.62;100.00
78562;BME280;68963;52.138;5.446;2023-05-10T06:55:42;101166.72;;;12.62;100.00
78562;BME280;68963;52.138;5.446;2023-05-10T06:58:08;101162.44;;;12.61;100.00
78562;BME280;68963;52.138;5.446;2023-05-10T07:00:35;101156.16;;;12.62;100.00
78562;BME280;68963;52.138;5.446;2023-05-10T07:03:05;101159.84;;;12.68;100.00
78562;BME280;68963;52.138;5.446;2023-05-10T07:05:32;101164.34;;;12.74;100.00
78562;BME280;68963;52.138;5.446;2023-05-10T07:07:59;101168.47;;;12.83;100.00
78562;BME280;68963;52.138;5.446;2023-05-10T07:10:26;101165.47;;;12.86;100.00
78562;BME280;68963;52.138;5.446;2023-05-10T07:12:53;101177.66;;;12.87;100.00
78562;BME280;68963;52.138;5.446;2023-05-10T07:15:19;101176.41;;;12.83;100.00
78562;BME280;68963;52.138;5.446;2023-05-10T07:17:46;101172.31;;;12.80;100.00
78562;BME280;68963;52.138;5.446;2023-05-10T07:20:13;101173.13;;;12.81;100.00
78562;BME280;68963;52.138;5.446;2023-05-10T07:22:39;101174.16;;;12.80;100.00
78562;BME280;68963;52.138;5.446;2023-05-10T07:25:06;101171.34;;;12.81;100.00
78562;BME280;68963;52.138;5.446;2023-05-10T07:27:32;101175.81;;;12.88;100.00
78562;BME280;68963;52.138;5.446;2023-05-10T07:29:59;101175.88;;;12.94;100.00
78562;BME280;68963;52.138;5.446;2023-05-10T07:32:26;101188.50;;;12.99;100.00
78562;BME280;68963;52.138;5.446;2023-05-10T07:34:53;101186.25;;;12.96;100.00
78562;BME280;68963;52.138;5.446;2023-05-10T07:37:20;101196.22;;;12.94;100.00
78562;BME280;68963;52.138;5.446;2023-05-10T07:39:46;101196.38;;;12.92;100.00
78562;BME280;68963;52.138;5.446;2023-05-10T07:42:13;101196.81;;;12.96;100.00
78562;BME280;68963;52.138;5.446;2023-05-10T07:44:39;101196.69;;;13.04;100.00
78562;BME280;68963;52.138;5.446;2023-05-10T07:47:06;101205.03;;;13.08;100.00
78562;BME280;68963;52.138;5.446;2023-05-10T07:49:32;101207.09;;;13.12;100.00
78562;BME280;68963;52.138;5.446;2023-05-10T07:51:59;101203.84;;;13.17;100.00
78562;BME280;68963;52.138;5.446;2023-05-10T07:54:25;101204.53;;;13.25;100.00
78562;BME280;68963;52.138;5.446;2023-05-10T07:56:52;101204.38;;;13.34;100.00
78562;BME280;68963;52.138;5.446;2023-05-10T07:59:18;101212.56;;;13.45;100.00
78562;BME280;68963;52.138;5.446;2023-05-10T08:01:45;101214.03;;;13.54;100.00
78562;BME280;68963;52.138;5.446;2023-05-10T08:04:11;101218.13;;;13.57;100.00
78562;BME280;68963;52.138;5.446;2023-05-10T08:06:39;101225.44;;;13.62;100.00
78562;BME280;68963;52.138;5.446;2023-05-10T08:09:06;101225.88;;;13.59;100.00
78562;BME280;68963;52.138;5.446;2023-05-10T08:11:32;101219.94;;;13.57;100.00
78562;BME280;68963;52.138;5.446;2023-05-10T08:14:00;101218.25;;;13.42;100.00
78562;BME280;68963;52.138;5.446;2023-05-10T08:16:27;101225.31;;;13.28;100.00
78562;BME280;68963;52.138;5.446;2023-05-10T08:18:54;101230.81;;;13.27;100.00
78562;BME280;68963;52.138;5.446;2023-05-10T08:21:21;101224.50;;;13.28;100.00
78562;BME280;68963;52.138;5.446;2023-05-10T08:23:48;101232.19;;;13.23;100.00
78562;BME280;68963;52.138;5.446;2023-05-10T08:26:15;101233.84;;;13.24;100.00
78562;BME280;68963;52.138;5.446;2023-05-10T08:28:42;101232.63;;;13.26;100.00
78562;BME280;68963;52.138;5.446;2023-05-10T08:31:08;101237.53;;;13.29;100.00
78562;BME280;68963;52.138;5.446;2023-05-10T08:33:35;101235.50;;;13.32;100.00
78562;BME280;68963;52.138;5.446;2023-05-10T08:36:01;101236.13;;;13.34;100.00
78562;BME280;68963;52.138;5.446;2023-05-10T08:38:28;101244.06;;;13.34;100.00
78562;BME280;68963;52.138;5.446;2023-05-10T08:40:55;101251.00;;;13.35;100.00
78562;BME280;68963;52.138;5.446;2023-05-10T08:43:27;101250.94;;;13.28;100.00
78562;BME280;68963;52.138;5.446;2023-05-10T08:46:00;101252.41;;;13.31;100.00
78562;BME280;68963;52.138;5.446;2023-05-10T08:48:29;101264.44;;;13.33;100.00
78562;BME280;68963;52.138;5.446;2023-05-10T08:50:58;101256.91;;;13.37;100.00
78562;BME280;68963;52.138;5.446;2023-05-10T08:53:26;101265.66;;;13.37;100.00
78562;BME280;68963;52.138;5.446;2023-05-10T08:55:55;101272.19;;;13.41;100.00
78562;BME280;68963;52.138;5.446;2023-05-10T08:58:21;101265.88;;;13.42;100.00
78562;BME280;68963;52.138;5.446;2023-05-10T09:00:49;101274.47;;;13.44;100.00
78562;BME280;68963;52.138;5.446;2023-05-10T09:03:17;101262.72;;;13.60;100.00
78562;BME280;68963;52.138;5.446;2023-05-10T09:05:44;101268.47;;;13.77;100.00
78562;BME280;68963;52.138;5.446;2023-05-10T09:08:11;101269.38;;;14.04;100.00
78562;BME280;68963;52.138;5.446;2023-05-10T09:10:39;101274.13;;;14.35;100.00
78562;BME280;68963;52.138;5.446;2023-05-10T09:13:10;101269.09;;;14.60;99.18
78562;BME280;68963;52.138;5.446;2023-05-10T09:15:37;101269.72;;;14.62;97.94
78562;BME280;68963;52.138;5.446;2023-05-10T09:18:04;101268.09;;;14.55;97.08
78562;BME280;68963;52.138;5.446;2023-05-10T09:20:31;101261.53;;;14.50;98.33
78562;BME280;68963;52.138;5.446;2023-05-10T09:22:57;101275.38;;;14.46;95.61
78562;BME280;68963;52.138;5.446;2023-05-10T09:25:24;101278.47;;;14.49;96.94
78562;BME280;68963;52.138;5.446;2023-05-10T09:27:52;101275.44;;;14.66;96.67
78562;BME280;68963;52.138;5.446;2023-05-10T09:30:26;101279.91;;;14.85;94.71
78562;BME280;68963;52.138;5.446;2023-05-10T09:32:55;101283.97;;;15.08;95.08
78562;BME280;68963;52.138;5.446;2023-05-10T09:35:25;101284.31;;;15.38;96.13
78562;BME280;68963;52.138;5.446;2023-05-10T09:37:57;101283.63;;;15.62;91.90
78562;BME280;68963;52.138;5.446;2023-05-10T09:40:25;101289.88;;;15.88;91.51
78562;BME280;68963;52.138;5.446;2023-05-10T09:42:55;101288.13;;;16.13;92.46
78562;BME280;68963;52.138;5.446;2023-05-10T09:45:26;101294.47;;;16.44;87.64
78562;BME280;68963;52.138;5.446;2023-05-10T09:47:53;101301.34;;;16.52;87.22
78562;BME280;68963;52.138;5.446;2023-05-10T09:50:20;101298.38;;;16.66;87.85
78562;BME280;68963;52.138;5.446;2023-05-10T09:52:55;101296.91;;;16.71;85.89
78562;BME280;68963;52.138;5.446;2023-05-10T09:55:24;101298.53;;;16.47;85.10
78562;BME280;68963;52.138;5.446;2023-05-10T09:58:01;101301.13;;;16.28;82.71
78562;BME280;68963;52.138;5.446;2023-05-10T10:00:28;101307.56;;;16.07;81.85
78562;BME280;68963;52.138;5.446;2023-05-10T10:02:59;101315.91;;;15.73;83.30
78562;BME280;68963;52.138;5.446;2023-05-10T10:05:33;101315.13;;;15.45;82.85
78562;BME280;68963;52.138;5.446;2023-05-10T10:08:02;101312.47;;;15.39;86.06
78562;BME280;68963;52.138;5.446;2023-05-10T10:10:31;101315.13;;;15.45;86.20
78562;BME280;68963;52.138;5.446;2023-05-10T10:12:58;101316.16;;;15.44;88.48
78562;BME280;68963;52.138;5.446;2023-05-10T10:15:25;101313.91;;;15.41;88.26
78562;BME280;68963;52.138;5.446;2023-05-10T10:17:52;101318.81;;;15.44;88.60
78562;BME280;68963;52.138;5.446;2023-05-10T10:20:21;101321.47;;;15.31;87.37
78562;BME280;68963;52.138;5.446;2023-05-10T10:22:48;101320.66;;;15.24;90.32
78562;BME280;68963;52.138;5.446;2023-05-10T10:25:16;101322.06;;;15.46;92.16
78562;BME280;68963;52.138;5.446;2023-05-10T10:30:43;101315.63;;;15.87;90.97
78562;BME280;68963;52.138;5.446;2023-05-10T10:35:55;101319.19;;;16.13;89.81
78562;BME280;68963;52.138;5.446;2023-05-10T10:38:39;101326.13;;;16.14;89.45
78562;BME280;68963;52.138;5.446;2023-05-10T10:41:35;101327.97;;;16.13;89.03
78562;BME280;68963;52.138;5.446;2023-05-10T10:50:11;101335.25;;;15.86;88.05
78562;BME280;68963;52.138;5.446;2023-05-10T10:52:40;101325.22;;;15.88;88.03
78562;BME280;68963;52.138;5.446;2023-05-10T10:55:17;101331.09;;;15.97;88.75
78562;BME280;68963;52.138;5.446;2023-05-10T10:57:50;101323.66;;;16.12;88.66
78562;BME280;68963;52.138;5.446;2023-05-10T11:00:33;101324.81;;;16.30;88.87
78562;BME280;68963;52.138;5.446;2023-05-10T11:03:11;101327.22;;;16.38;87.23
78562;BME280;68963;52.138;5.446;2023-05-10T11:05:46;101327.81;;;16.40;86.24
78562;BME280;68963;52.138;5.446;2023-05-10T11:08:30;101338.03;;;16.43;86.03
78562;BME280;68963;52.138;5.446;2023-05-10T11:13:38;101328.09;;;16.32;85.53
78562;BME280;68963;52.138;5.446;2023-05-10T11:16:24;101329.88;;;16.38;85.52
78562;BME280;68963;52.138;5.446;2023-05-10T11:21:23;101336.53;;;16.15;84.92
78562;BME280;68963;52.138;5.446;2023-05-10T11:23:53;101326.38;;;16.06;84.80
78562;BME280;68963;52.138;5.446;2023-05-10T11:26:24;101344.81;;;15.94;85.36
78562;BME280;68963;52.138;5.446;2023-05-10T11:28:54;101346.69;;;15.87;86.51
78562;BME280;68963;52.138;5.446;2023-05-10T11:31:22;101343.22;;;15.86;87.08
78562;BME280;68963;52.138;5.446;2023-05-10T11:33:56;101343.59;;;15.97;88.13
78562;BME280;68963;52.138;5.446;2023-05-10T11:36:26;101336.16;;;16.12;85.83
78562;BME280;68963;52.138;5.446;2023-05-10T11:38:54;101341.38;;;16.32;86.19
78562;BME280;68963;52.138;5.446;2023-05-10T11:41:23;101340.13;;;16.66;86.75
78562;BME280;68963;52.138;5.446;2023-05-10T11:43:51;101342.34;;;17.01;85.89
78562;BME280;68963;52.138;5.446;2023-05-10T11:46:20;101336.19;;;17.44;85.69
78562;BME280;68963;52.138;5.446;2023-05-10T11:48:52;101339.72;;;17.81;82.94
78562;BME280;68963;52.138;5.446;2023-05-10T11:51:22;101346.19;;;18.03;82.73
78562;BME280;68963;52.138;5.446;2023-05-10T11:53:50;101343.56;;;17.85;80.15
78562;BME280;68963;52.138;5.446;2023-05-10T11:56:17;101335.03;;;17.58;76.77
78562;BME280;68963;52.138;5.446;2023-05-10T11:58:44;101342.19;;;17.39;79.33
78562;BME280;68963;52.138;5.446;2023-05-10T12:01:11;101341.59;;;17.37;77.62
78562;BME280;68963;52.138;5.446;2023-05-10T12:03:39;101346.34;;;17.35;81.62
78562;BME280;68963;52.138;5.446;2023-05-10T12:06:07;101352.09;;;17.32;79.07
78562;BME280;68963;52.138;5.446;2023-05-10T12:08:34;101344.94;;;17.07;78.44
78562;BME280;68963;52.138;5.446;2023-05-10T12:11:09;101347.88;;;16.74;79.49
78562;BME280;68963;52.138;5.446;2023-05-10T12:13:42;101356.09;;;16.66;82.22
78562;BME280;68963;52.138;5.446;2023-05-10T12:16:17;101356.25;;;16.71;80.57
78562;BME280;68963;52.138;5.446;2023-05-10T12:18:44;101353.28;;;16.61;79.35
78562;BME280;68963;52.138;5.446;2023-05-10T12:21:11;101358.97;;;16.64;82.00
78562;BME280;68963;52.138;5.446;2023-05-10T12:23:39;101353.00;;;16.76;80.36
78562;BME280;68963;52.138;5.446;2023-05-10T12:26:08;101346.78;;;16.82;80.28
78562;BME280;68963;52.138;5.446;2023-05-10T12:28:36;101346.16;;;16.86;77.16
78562;BME280;68963;52.138;5.446;2023-05-10T12:31:03;101351.25;;;16.88;76.36
78562;BME280;68963;52.138;5.446;2023-05-10T12:33:38;101355.97;;;17.11;79.16
78562;BME280;68963;52.138;5.446;2023-05-10T12:36:05;101352.50;;;17.54;75.70
78562;BME280;68963;52.138;5.446;2023-05-10T12:41:08;101353.66;;;18.13;77.51
78562;BME280;68963;52.138;5.446;2023-05-10T12:43:36;101349.72;;;18.34;74.61
78562;BME280;68963;52.138;5.446;2023-05-10T12:48:32;101344.88;;;18.54;69.16
78562;BME280;68963;52.138;5.446;2023-05-10T12:51:01;101351.13;;;18.48;72.72
78562;BME280;68963;52.138;5.446;2023-05-10T12:53:28;101346.47;;;18.44;72.88
78562;BME280;68963;52.138;5.446;2023-05-10T12:55:55;101345.38;;;18.33;74.09
78562;BME280;68963;52.138;5.446;2023-05-10T12:58:22;101349.59;;;18.41;73.13
78562;BME280;68963;52.138;5.446;2023-05-10T13:01:00;101356.00;;;18.51;73.23
78562;BME280;68963;52.138;5.446;2023-05-10T13:03:27;101360.88;;;18.54;71.00
78562;BME280;68963;52.138;5.446;2023-05-10T13:05:53;101357.31;;;18.61;74.68
78562;BME280;68963;52.138;5.446;2023-05-10T13:08:20;101361.69;;;18.55;72.13
78562;BME280;68963;52.138;5.446;2023-05-10T13:10:46;101358.81;;;18.56;70.34
78562;BME280;68963;52.138;5.446;2023-05-10T13:13:13;101361.09;;;18.41;72.31
78562;BME280;68963;52.138;5.446;2023-05-10T13:15:40;101371.50;;;18.31;72.21
78562;BME280;68963;52.138;5.446;2023-05-10T13:18:07;101374.31;;;18.18;73.31
78562;BME280;68963;52.138;5.446;2023-05-10T13:20:34;101379.72;;;18.11;74.59
78562;BME280;68963;52.138;5.446;2023-05-10T13:23:00;101376.13;;;17.87;74.88
78562;BME280;68963;52.138;5.446;2023-05-10T13:25:28;101385.59;;;17.65;75.43
78562;BME280;68963;52.138;5.446;2023-05-10T13:27:55;101387.19;;;17.22;79.03
78562;BME280;68963;52.138;5.446;2023-05-10T13:30:22;101390.94;;;16.89;81.44
78562;BME280;68963;52.138;5.446;2023-05-10T13:32:50;101400.91;;;16.62;82.48